sensor_id;sensor_type;location;lat;lon;timestamp;P1;durP1;ratioP1;P2;durP2;ratioP2
10633;SDS011;5365;51.640;8.106;2023-08-01T00:02:00;1.00;;;0.40;;
10633;SDS011;5365;51.640;8.106;2023-08-01T00:05:01;0.30;;;0.10;;
10633;SDS011;5365;51.640;8.106;2023-08-01T00:08:01;0.40;;;0.20;;
10633;SDS011;5365;51.640;8.106;2023-08-01T00:11:02;0.20;;;0.20;;
10633;SDS011;5365;51.640;8.106;2023-08-01T00:14:02;0.10;;;0.00;;
10633;SDS011;5365;51.640;8.106;2023-08-01T00:17:03;0.70;;;0.20;;
10633;SDS011;5365;51.640;8.106;2023-08-01T00:20:03;0.97;;;0.07;;
10633;SDS011;5365;51.640;8.106;2023-08-01T00:23:04;0.40;;;0.20;;
10633;SDS011;5365;51.640;8.106;2023-08-01T00:26:04;0.10;;;0.00;;
10633;SDS011;5365;51.640;8.106;2023-08-01T00:29:04;0.43;;;0.23;;
10633;SDS011;5365;51.640;8.106;2023-08-01T00:32:05;0.40;;;0.10;;
10633;SDS011;5365;51.640;8.106;2023-08-01T00:35:05;0.57;;;0.37;;
10633;SDS011;5365;51.640;8.106;2023-08-01T00:38:05;0.10;;;0.03;;
10633;SDS011;5365;51.640;8.106;2023-08-01T00:41:06;0.43;;;0.10;;
10633;SDS011;5365;51.640;8.106;2023-08-01T00:44:06;0.77;;;0.10;;
10633;SDS011;5365;51.640;8.106;2023-08-01T00:47:06;0.30;;;0.10;;
10633;SDS011;5365;51.640;8.106;2023-08-01T00:50:07;0.40;;;0.10;;
10633;SDS011;5365;51.640;8.106;2023-08-01T00:53:07;0.03;;;0.03;;
10633;SDS011;5365;51.640;8.106;2023-08-01T00:56:07;0.20;;;0.20;;
10633;SDS011;5365;51.640;8.106;2023-08-01T00:59:08;0.00;;;0.00;;
10633;SDS011;5365;51.640;8.106;2023-08-01T01:02:08;0.20;;;0.03;;
10633;SDS011;5365;51.640;8.106;2023-08-01T01:05:08;0.43;;;0.35;;
10633;SDS011;5365;51.640;8.106;2023-08-01T01:08:09;0.00;;;0.00;;
10633;SDS011;5365;51.640;8.106;2023-08-01T01:11:09;0.23;;;0.10;;
10633;SDS011;5365;51.640;8.106;2023-08-01T01:14:09;0.00;;;0.00;;
10633;SDS011;5365;51.640;8.106;2023-08-01T01:17:09;0.30;;;0.20;;
10633;SDS011;5365;51.640;8.106;2023-08-01T01:20:10;0.40;;;0.10;;
10633;SDS011;5365;51.640;8.106;2023-08-01T01:23:10;0.00;;;0.00;;
10633;SDS011;5365;51.640;8.106;2023-08-01T01:26:11;0.20;;;0.00;;
10633;SDS011;5365;51.640;8.106;2023-08-01T01:29:11;0.00;;;0.00;;
10633;SDS011;5365;51.640;8.106;2023-08-01T01:32:12;0.00;;;0.00;;
10633;SDS011;5365;51.640;8.106;2023-08-01T01:35:13;0.10;;;0.10;;
10633;SDS011;5365;51.640;8.106;2023-08-01T01:38:13;0.30;;;0.10;;
10633;SDS011;5365;51.640;8.106;2023-08-01T01:41:13;0.00;;;0.00;;
10633;SDS011;5365;51.640;8.106;2023-08-01T01:44:13;0.00;;;0.00;;
10633;SDS011;5365;51.640;8.106;2023-08-01T01:47:13;0.17;;;0.17;;
10633;SDS011;5365;51.640;8.106;2023-08-01T01:50:14;0.90;;;0.28;;
10633;SDS011;5365;51.640;8.106;2023-08-01T01:53:14;0.00;;;0.00;;
10633;SDS011;5365;51.640;8.106;2023-08-01T01:56:14;0.85;;;0.65;;
10633;SDS011;5365;51.640;8.106;2023-08-01T01:59:14;0.50;;;0.13;;
10633;SDS011;5365;51.640;8.106;2023-08-01T02:02:14;0.10;;;0.00;;
10633;SDS011;5365;51.640;8.106;2023-08-01T02:05:15;0.20;;;0.10;;
10633;SDS011;5365;51.640;8.106;2023-08-01T02:08:15;0.00;;;0.00;;
10633;SDS011;5365;51.640;8.106;2023-08-01T02:11:15;0.30;;;0.20;;
10633;SDS011;5365;51.640;8.106;2023-08-01T02:14:15;0.10;;;0.10;;
10633;SDS011;5365;51.640;8.106;2023-08-01T02:17:16;0.13;;;0.03;;
10633;SDS011;5365;51.640;8.106;2023-08-01T02:20:16;0.10;;;0.00;;
10633;SDS011;5365;51.640;8.106;2023-08-01T02:23:16;0.25;;;0.17;;
10633;SDS011;5365;51.640;8.106;2023-08-01T02:26:16;0.27;;;0.13;;
10633;SDS011;5365;51.640;8.106;2023-08-01T02:29:17;0.30;;;0.20;;
10633;SDS011;5365;51.640;8.106;2023-08-01T02:32:17;0.33;;;0.20;;
10633;SDS011;5365;51.640;8.106;2023-08-01T02:35:17;0.00;;;0.00;;
10633;SDS011;5365;51.640;8.106;2023-08-01T02:38:17;0.03;;;0.00;;
10633;SDS011;5365;51.640;8.106;2023-08-01T02:41:18;0.47;;;0.15;;
10633;SDS011;5365;51.640;8.106;2023-08-01T02:44:18;0.37;;;0.20;;
10633;SDS011;5365;51.640;8.106;2023-08-01T02:47:18;0.10;;;0.00;;
10633;SDS011;5365;51.640;8.106;2023-08-01T02:50:18;0.17;;;0.17;;
10633;SDS011;5365;51.640;8.106;2023-08-01T02:53:18;1.07;;;0.37;;
10633;SDS011;5365;51.640;8.106;2023-08-01T02:56:18;0.43;;;0.33;;
10633;SDS011;5365;51.640;8.106;2023-08-01T02:59:19;0.50;;;0.10;;
10633;SDS011;5365;51.640;8.106;2023-08-01T03:02:19;0.55;;;0.22;;
10633;SDS011;5365;51.640;8.106;2023-08-01T03:05:19;0.30;;;0.10;;
10633;SDS011;5365;51.640;8.106;2023-08-01T03:08:19;1.10;;;0.43;;
10633;SDS011;5365;51.640;8.106;2023-08-01T03:11:20;1.20;;;0.57;;
10633;SDS011;5365;51.640;8.106;2023-08-01T03:14:20;0.17;;;0.07;;
10633;SDS011;5365;51.640;8.106;2023-08-01T03:17:20;1.53;;;0.80;;
10633;SDS011;5365;51.640;8.106;2023-08-01T03:20:20;1.00;;;0.43;;
10633;SDS011;5365;51.640;8.106;2023-08-01T03:23:20;0.40;;;0.40;;
10633;SDS011;5365;51.640;8.106;2023-08-01T03:26:20;2.13;;;0.73;;
10633;SDS011;5365;51.640;8.106;2023-08-01T03:29:22;1.40;;;0.50;;
10633;SDS011;5365;51.640;8.106;2023-08-01T03:32:22;0.53;;;0.47;;
10633;SDS011;5365;51.640;8.106;2023-08-01T03:35:22;1.07;;;0.43;;
10633;SDS011;5365;51.640;8.106;2023-08-01T03:38:23;2.08;;;1.10;;
10633;SDS011;5365;51.640;8.106;2023-08-01T03:41:24;3.67;;;0.88;;
10633;SDS011;5365;51.640;8.106;2023-08-01T03:44:24;2.47;;;1.17;;
10633;SDS011;5365;51.640;8.106;2023-08-01T03:47:24;2.53;;;1.10;;
10633;SDS011;5365;51.640;8.106;2023-08-01T03:50:25;2.33;;;1.35;;
10633;SDS011;5365;51.640;8.106;2023-08-01T03:53:25;1.40;;;0.82;;
10633;SDS011;5365;51.640;8.106;2023-08-01T03:56:25;1.07;;;0.67;;
10633;SDS011;5365;51.640;8.106;2023-08-01T03:59:26;1.10;;;0.32;;
10633;SDS011;5365;51.640;8.106;2023-08-01T04:02:27;1.40;;;0.83;;
10633;SDS011;5365;51.640;8.106;2023-08-01T04:05:27;2.70;;;1.43;;
10633;SDS011;5365;51.640;8.106;2023-08-01T04:08:28;2.38;;;0.95;;
10633;SDS011;5365;51.640;8.106;2023-08-01T04:11:28;3.90;;;1.90;;
10633;SDS011;5365;51.640;8.106;2023-08-01T04:14:29;2.13;;;1.00;;
10633;SDS011;5365;51.640;8.106;2023-08-01T04:17:30;3.57;;;1.67;;
10633;SDS011;5365;51.640;8.106;2023-08-01T04:20:30;0.67;;;0.60;;
10633;SDS011;5365;51.640;8.106;2023-08-01T04:23:30;2.70;;;1.77;;
10633;SDS011;5365;51.640;8.106;2023-08-01T04:26:30;3.87;;;2.03;;
10633;SDS011;5365;51.640;8.106;2023-08-01T04:29:30;3.27;;;2.37;;
10633;SDS011;5365;51.640;8.106;2023-08-01T04:32:31;4.47;;;1.97;;
10633;SDS011;5365;51.640;8.106;2023-08-01T04:35:31;3.27;;;1.87;;
10633;SDS011;5365;51.640;8.106;2023-08-01T04:38:31;3.23;;;2.37;;
10633;SDS011;5365;51.640;8.106;2023-08-01T04:41:31;7.10;;;2.93;;
10633;SDS011;5365;51.640;8.106;2023-08-01T04:44:32;5.10;;;2.67;;
10633;SDS011;5365;51.640;8.106;2023-08-01T04:47:32;8.53;;;3.97;;
10633;SDS011;5365;51.640;8.106;2023-08-01T04:50:32;5.67;;;3.00;;
10633;SDS011;5365;51.640;8.106;2023-08-01T04:53:32;7.30;;;3.33;;
10633;SDS011;5365;51.640;8.106;2023-08-01T04:56:32;10.15;;;4.05;;
10633;SDS011;5365;51.640;8.106;2023-08-01T04:59:33;7.77;;;3.97;;
10633;SDS011;5365;51.640;8.106;2023-08-01T05:02:33;5.88;;;2.97;;
10633;SDS011;5365;51.640;8.106;2023-08-01T05:05:33;5.43;;;2.92;;
10633;SDS011;5365;51.640;8.106;2023-08-01T05:08:33;12.17;;;4.87;;
10633;SDS011;5365;51.640;8.106;2023-08-01T05:11:33;5.77;;;3.00;;
10633;SDS011;5365;51.640;8.106;2023-08-01T05:14:34;12.30;;;4.70;;
10633;SDS011;5365;51.640;8.106;2023-08-01T05:17:34;14.23;;;4.97;;
10633;SDS011;5365;51.640;8.106;2023-08-01T05:20:34;6.00;;;3.03;;
10633;SDS011;5365;51.640;8.106;2023-08-01T05:23:35;10.88;;;4.28;;
10633;SDS011;5365;51.640;8.106;2023-08-01T05:26:36;11.85;;;4.40;;
10633;SDS011;5365;51.640;8.106;2023-08-01T05:29:36;6.32;;;3.88;;
10633;SDS011;5365;51.640;8.106;2023-08-01T05:32:36;8.50;;;3.70;;
10633;SDS011;5365;51.640;8.106;2023-08-01T05:35:36;8.47;;;3.00;;
10633;SDS011;5365;51.640;8.106;2023-08-01T05:38:37;6.13;;;3.67;;
10633;SDS011;5365;51.640;8.106;2023-08-01T05:41:37;7.23;;;3.70;;
10633;SDS011;5365;51.640;8.106;2023-08-01T05:44:37;5.57;;;2.80;;
10633;SDS011;5365;51.640;8.106;2023-08-01T05:47:37;6.33;;;3.27;;
10633;SDS011;5365;51.640;8.106;2023-08-01T05:50:40;6.53;;;3.60;;
10633;SDS011;5365;51.640;8.106;2023-08-01T05:53:40;7.82;;;1.92;;
10633;SDS011;5365;51.640;8.106;2023-08-01T05:56:40;7.20;;;2.20;;
10633;SDS011;5365;51.640;8.106;2023-08-01T05:59:40;7.77;;;3.60;;
10633;SDS011;5365;51.640;8.106;2023-08-01T06:02:41;5.00;;;2.80;;
10633;SDS011;5365;51.640;8.106;2023-08-01T06:05:41;5.90;;;3.03;;
10633;SDS011;5365;51.640;8.106;2023-08-01T06:08:41;5.43;;;3.23;;
10633;SDS011;5365;51.640;8.106;2023-08-01T06:11:41;13.63;;;4.85;;
10633;SDS011;5365;51.640;8.106;2023-08-01T06:14:42;9.15;;;2.58;;
10633;SDS011;5365;51.640;8.106;2023-08-01T06:17:42;8.40;;;3.60;;
10633;SDS011;5365;51.640;8.106;2023-08-01T06:20:42;12.50;;;4.70;;
10633;SDS011;5365;51.640;8.106;2023-08-01T06:23:42;5.00;;;3.77;;
10633;SDS011;5365;51.640;8.106;2023-08-01T06:26:43;8.30;;;5.43;;
10633;SDS011;5365;51.640;8.106;2023-08-01T06:29:43;9.90;;;5.17;;
10633;SDS011;5365;51.640;8.106;2023-08-01T06:32:43;12.32;;;6.88;;
10633;SDS011;5365;51.640;8.106;2023-08-01T06:35:43;12.83;;;5.83;;
10633;SDS011;5365;51.640;8.106;2023-08-01T06:38:43;14.13;;;6.27;;
10633;SDS011;5365;51.640;8.106;2023-08-01T06:41:44;14.50;;;5.00;;
10633;SDS011;5365;51.640;8.106;2023-08-01T06:44:45;16.57;;;5.50;;
10633;SDS011;5365;51.640;8.106;2023-08-01T06:47:45;14.32;;;6.45;;
10633;SDS011;5365;51.640;8.106;2023-08-01T06:50:45;11.73;;;5.63;;
10633;SDS011;5365;51.640;8.106;2023-08-01T06:53:46;8.23;;;4.30;;
10633;SDS011;5365;51.640;8.106;2023-08-01T06:56:46;10.93;;;5.13;;
10633;SDS011;5365;51.640;8.106;2023-08-01T06:59:49;5.07;;;2.83;;
10633;SDS011;5365;51.640;8.106;2023-08-01T07:02:49;4.07;;;2.73;;
10633;SDS011;5365;51.640;8.106;2023-08-01T07:05:50;6.65;;;4.75;;
10633;SDS011;5365;51.640;8.106;2023-08-01T07:08:50;12.13;;;4.45;;
10633;SDS011;5365;51.640;8.106;2023-08-01T07:11:51;10.13;;;4.60;;
10633;SDS011;5365;51.640;8.106;2023-08-01T07:14:51;8.23;;;3.75;;
10633;SDS011;5365;51.640;8.106;2023-08-01T07:17:51;13.77;;;4.63;;
10633;SDS011;5365;51.640;8.106;2023-08-01T07:21:01;6.77;;;3.63;;
10633;SDS011;5365;51.640;8.106;2023-08-01T07:24:01;15.48;;;6.65;;
10633;SDS011;5365;51.640;8.106;2023-08-01T07:27:01;6.33;;;4.03;;
10633;SDS011;5365;51.640;8.106;2023-08-01T07:30:02;8.23;;;4.00;;
10633;SDS011;5365;51.640;8.106;2023-08-01T07:33:02;16.60;;;6.38;;
10633;SDS011;5365;51.640;8.106;2023-08-01T07:36:03;9.30;;;4.23;;
10633;SDS011;5365;51.640;8.106;2023-08-01T07:39:03;8.15;;;4.90;;
10633;SDS011;5365;51.640;8.106;2023-08-01T07:42:03;9.13;;;4.13;;
10633;SDS011;5365;51.640;8.106;2023-08-01T07:45:04;7.72;;;5.03;;
10633;SDS011;5365;51.640;8.106;2023-08-01T07:48:04;7.60;;;3.42;;
10633;SDS011;5365;51.640;8.106;2023-08-01T07:51:04;9.43;;;3.93;;
10633;SDS011;5365;51.640;8.106;2023-08-01T07:54:05;12.43;;;4.95;;
10633;SDS011;5365;51.640;8.106;2023-08-01T07:57:06;7.17;;;3.77;;
10633;SDS011;5365;51.640;8.106;2023-08-01T08:00:06;6.93;;;4.38;;
10633;SDS011;5365;51.640;8.106;2023-08-01T08:03:06;9.00;;;4.50;;
10633;SDS011;5365;51.640;8.106;2023-08-01T08:06:08;8.15;;;3.60;;
10633;SDS011;5365;51.640;8.106;2023-08-01T08:09:08;7.10;;;4.67;;
10633;SDS011;5365;51.640;8.106;2023-08-01T08:12:08;14.80;;;7.40;;
10633;SDS011;5365;51.640;8.106;2023-08-01T08:15:08;10.93;;;4.67;;
10633;SDS011;5365;51.640;8.106;2023-08-01T08:18:09;8.50;;;4.07;;
10633;SDS011;5365;51.640;8.106;2023-08-01T08:21:09;15.15;;;6.15;;
10633;SDS011;5365;51.640;8.106;2023-08-01T08:24:10;7.70;;;4.57;;
10633;SDS011;5365;51.640;8.106;2023-08-01T08:27:10;11.87;;;5.27;;
10633;SDS011;5365;51.640;8.106;2023-08-01T08:30:10;10.00;;;5.33;;
10633;SDS011;5365;51.640;8.106;2023-08-01T08:33:17;6.88;;;4.03;;
10633;SDS011;5365;51.640;8.106;2023-08-01T08:36:18;10.63;;;4.85;;
10633;SDS011;5365;51.640;8.106;2023-08-01T08:39:18;9.30;;;4.83;;
10633;SDS011;5365;51.640;8.106;2023-08-01T08:42:18;7.07;;;4.13;;
10633;SDS011;5365;51.640;8.106;2023-08-01T08:45:19;12.27;;;4.43;;
10633;SDS011;5365;51.640;8.106;2023-08-01T08:48:20;8.75;;;4.88;;
10633;SDS011;5365;51.640;8.106;2023-08-01T08:51:21;7.47;;;3.77;;
10633;SDS011;5365;51.640;8.106;2023-08-01T08:54:21;7.10;;;4.23;;
10633;SDS011;5365;51.640;8.106;2023-08-01T08:57:21;6.13;;;2.97;;
10633;SDS011;5365;51.640;8.106;2023-08-01T09:00:22;8.80;;;3.85;;
10633;SDS011;5365;51.640;8.106;2023-08-01T09:03:23;3.95;;;2.22;;
10633;SDS011;5365;51.640;8.106;2023-08-01T09:06:30;6.87;;;3.10;;
10633;SDS011;5365;51.640;8.106;2023-08-01T09:12:34;5.97;;;3.08;;
10633;SDS011;5365;51.640;8.106;2023-08-01T09:15:35;5.55;;;3.92;;
10633;SDS011;5365;51.640;8.106;2023-08-01T09:18:46;4.78;;;2.63;;
10633;SDS011;5365;51.640;8.106;2023-08-01T09:21:47;4.88;;;2.35;;
10633;SDS011;5365;51.640;8.106;2023-08-01T09:24:53;5.95;;;3.72;;
10633;SDS011;5365;51.640;8.106;2023-08-01T09:27:53;4.28;;;2.53;;
10633;SDS011;5365;51.640;8.106;2023-08-01T09:30:54;6.15;;;2.75;;
10633;SDS011;5365;51.640;8.106;2023-08-01T09:33:57;5.55;;;3.20;;
10633;SDS011;5365;51.640;8.106;2023-08-01T09:36:58;5.30;;;2.27;;
10633;SDS011;5365;51.640;8.106;2023-08-01T09:39:59;5.22;;;2.05;;
10633;SDS011;5365;51.640;8.106;2023-08-01T09:43:00;4.27;;;2.67;;
10633;SDS011;5365;51.640;8.106;2023-08-01T09:46:01;5.68;;;1.73;;
10633;SDS011;5365;51.640;8.106;2023-08-01T09:49:12;3.30;;;1.63;;
10633;SDS011;5365;51.640;8.106;2023-08-01T09:52:12;5.72;;;2.58;;
10633;SDS011;5365;51.640;8.106;2023-08-01T09:55:12;2.33;;;1.50;;
10633;SDS011;5365;51.640;8.106;2023-08-01T09:58:13;3.47;;;2.07;;
10633;SDS011;5365;51.640;8.106;2023-08-01T10:01:14;3.72;;;1.85;;
10633;SDS011;5365;51.640;8.106;2023-08-01T10:04:14;2.78;;;1.40;;
10633;SDS011;5365;51.640;8.106;2023-08-01T10:07:14;3.08;;;1.85;;
10633;SDS011;5365;51.640;8.106;2023-08-01T10:13:19;4.65;;;1.92;;
10633;SDS011;5365;51.640;8.106;2023-08-01T10:16:20;5.20;;;3.28;;
10633;SDS011;5365;51.640;8.106;2023-08-01T10:19:21;2.38;;;0.80;;
10633;SDS011;5365;51.640;8.106;2023-08-01T10:22:21;5.40;;;2.27;;
10633;SDS011;5365;51.640;8.106;2023-08-01T10:25:22;3.38;;;1.52;;
10633;SDS011;5365;51.640;8.106;2023-08-01T10:28:35;3.63;;;2.00;;
10633;SDS011;5365;51.640;8.106;2023-08-01T10:31:35;2.63;;;1.77;;
10633;SDS011;5365;51.640;8.106;2023-08-01T10:34:36;5.40;;;1.40;;
10633;SDS011;5365;51.640;8.106;2023-08-01T10:37:42;5.03;;;1.33;;
10633;SDS011;5365;51.640;8.106;2023-08-01T10:40:43;6.50;;;1.85;;
10633;SDS011;5365;51.640;8.106;2023-08-01T10:43:43;2.33;;;1.23;;
10633;SDS011;5365;51.640;8.106;2023-08-01T10:46:50;4.17;;;1.80;;
10633;SDS011;5365;51.640;8.106;2023-08-01T10:49:51;3.88;;;1.60;;
10633;SDS011;5365;51.640;8.106;2023-08-01T10:52:51;4.37;;;1.40;;
10633;SDS011;5365;51.640;8.106;2023-08-01T10:56:01;3.28;;;1.50;;
10633;SDS011;5365;51.640;8.106;2023-08-01T10:59:04;4.20;;;1.33;;
10633;SDS011;5365;51.640;8.106;2023-08-01T11:02:05;2.47;;;1.38;;
10633;SDS011;5365;51.640;8.106;2023-08-01T11:05:06;2.23;;;1.60;;
10633;SDS011;5365;51.640;8.106;2023-08-01T11:08:06;2.53;;;1.40;;
10633;SDS011;5365;51.640;8.106;2023-08-01T11:11:07;3.93;;;1.43;;
10633;SDS011;5365;51.640;8.106;2023-08-01T11:14:08;3.72;;;1.50;;
10633;SDS011;5365;51.640;8.106;2023-08-01T11:17:08;3.63;;;1.30;;
10633;SDS011;5365;51.640;8.106;2023-08-01T11:20:09;3.10;;;1.60;;
10633;SDS011;5365;51.640;8.106;2023-08-01T11:23:10;2.50;;;1.20;;
10633;SDS011;5365;51.640;8.106;2023-08-01T11:26:11;4.10;;;1.50;;
10633;SDS011;5365;51.640;8.106;2023-08-01T11:29:11;3.27;;;1.20;;
10633;SDS011;5365;51.640;8.106;2023-08-01T11:32:12;2.55;;;1.08;;
10633;SDS011;5365;51.640;8.106;2023-08-01T11:35:17;3.05;;;1.20;;
10633;SDS011;5365;51.640;8.106;2023-08-01T11:38:17;3.00;;;1.02;;
10633;SDS011;5365;51.640;8.106;2023-08-01T11:41:17;2.77;;;1.40;;
10633;SDS011;5365;51.640;8.106;2023-08-01T11:44:17;1.60;;;0.70;;
10633;SDS011;5365;51.640;8.106;2023-08-01T11:47:18;2.90;;;1.13;;
10633;SDS011;5365;51.640;8.106;2023-08-01T11:50:22;2.15;;;0.90;;
10633;SDS011;5365;51.640;8.106;2023-08-01T11:53:25;2.53;;;1.30;;
10633;SDS011;5365;51.640;8.106;2023-08-01T11:56:26;2.97;;;1.37;;
10633;SDS011;5365;51.640;8.106;2023-08-01T11:59:26;3.43;;;1.57;;
10633;SDS011;5365;51.640;8.106;2023-08-01T12:02:27;2.50;;;1.37;;
10633;SDS011;5365;51.640;8.106;2023-08-01T12:05:28;4.22;;;1.27;;
10633;SDS011;5365;51.640;8.106;2023-08-01T12:08:30;3.22;;;1.52;;
10633;SDS011;5365;51.640;8.106;2023-08-01T12:11:32;3.30;;;1.45;;
10633;SDS011;5365;51.640;8.106;2023-08-01T12:14:32;3.07;;;0.87;;
10633;SDS011;5365;51.640;8.106;2023-08-01T12:17:33;3.40;;;1.17;;
10633;SDS011;5365;51.640;8.106;2023-08-01T12:20:33;2.33;;;1.57;;
10633;SDS011;5365;51.640;8.106;2023-08-01T12:23:33;4.60;;;1.30;;
10633;SDS011;5365;51.640;8.106;2023-08-01T12:26:33;2.13;;;1.00;;
10633;SDS011;5365;51.640;8.106;2023-08-01T12:29:34;2.08;;;0.60;;
10633;SDS011;5365;51.640;8.106;2023-08-01T12:32:34;1.27;;;0.60;;
10633;SDS011;5365;51.640;8.106;2023-08-01T12:35:40;1.30;;;0.80;;
10633;SDS011;5365;51.640;8.106;2023-08-01T12:38:41;0.98;;;0.30;;
10633;SDS011;5365;51.640;8.106;2023-08-01T12:41:41;4.03;;;0.50;;
10633;SDS011;5365;51.640;8.106;2023-08-01T12:44:41;2.30;;;0.70;;
10633;SDS011;5365;51.640;8.106;2023-08-01T12:47:41;2.60;;;0.83;;
10633;SDS011;5365;51.640;8.106;2023-08-01T12:50:45;1.55;;;0.57;;
10633;SDS011;5365;51.640;8.106;2023-08-01T12:53:45;4.25;;;0.85;;
10633;SDS011;5365;51.640;8.106;2023-08-01T12:56:46;2.60;;;1.00;;
10633;SDS011;5365;51.640;8.106;2023-08-01T12:59:46;0.90;;;0.37;;
10633;SDS011;5365;51.640;8.106;2023-08-01T13:02:46;1.77;;;0.93;;
10633;SDS011;5365;51.640;8.106;2023-08-01T13:05:47;0.85;;;0.40;;
10633;SDS011;5365;51.640;8.106;2023-08-01T13:08:47;1.23;;;0.50;;
10633;SDS011;5365;51.640;8.106;2023-08-01T13:11:47;3.30;;;0.40;;
10633;SDS011;5365;51.640;8.106;2023-08-01T13:14:48;2.95;;;0.50;;
10633;SDS011;5365;51.640;8.106;2023-08-01T13:17:48;0.97;;;0.40;;
10633;SDS011;5365;51.640;8.106;2023-08-01T13:20:48;2.90;;;1.05;;
10633;SDS011;5365;51.640;8.106;2023-08-01T13:23:48;1.33;;;0.60;;
10633;SDS011;5365;51.640;8.106;2023-08-01T13:26:48;1.30;;;0.77;;
10633;SDS011;5365;51.640;8.106;2023-08-01T13:29:49;1.42;;;0.60;;
10633;SDS011;5365;51.640;8.106;2023-08-01T13:32:51;2.95;;;1.20;;
10633;SDS011;5365;51.640;8.106;2023-08-01T13:35:52;1.50;;;0.77;;
10633;SDS011;5365;51.640;8.106;2023-08-01T13:38:53;1.60;;;0.70;;
10633;SDS011;5365;51.640;8.106;2023-08-01T13:41:53;1.40;;;0.70;;
10633;SDS011;5365;51.640;8.106;2023-08-01T13:44:54;1.23;;;0.90;;
10633;SDS011;5365;51.640;8.106;2023-08-01T13:47:54;2.95;;;1.05;;
10633;SDS011;5365;51.640;8.106;2023-08-01T13:50:57;1.63;;;0.53;;
10633;SDS011;5365;51.640;8.106;2023-08-01T13:53:57;2.70;;;0.80;;
10633;SDS011;5365;51.640;8.106;2023-08-01T13:56:59;1.80;;;1.30;;
10633;SDS011;5365;51.640;8.106;2023-08-01T13:59:59;2.35;;;0.82;;
10633;SDS011;5365;51.640;8.106;2023-08-01T14:02:59;3.33;;;1.17;;
10633;SDS011;5365;51.640;8.106;2023-08-01T14:06:03;2.15;;;1.05;;
10633;SDS011;5365;51.640;8.106;2023-08-01T14:12:04;2.42;;;0.70;;
10633;SDS011;5365;51.640;8.106;2023-08-01T14:15:05;2.33;;;0.88;;
10633;SDS011;5365;51.640;8.106;2023-08-01T14:18:05;2.00;;;0.77;;
10633;SDS011;5365;51.640;8.106;2023-08-01T14:21:05;3.47;;;0.87;;
10633;SDS011;5365;51.640;8.106;2023-08-01T14:24:05;2.13;;;0.87;;
10633;SDS011;5365;51.640;8.106;2023-08-01T14:27:06;6.00;;;0.90;;
10633;SDS011;5365;51.640;8.106;2023-08-01T14:30:06;4.53;;;1.33;;
10633;SDS011;5365;51.640;8.106;2023-08-01T14:33:07;2.63;;;0.70;;
10633;SDS011;5365;51.640;8.106;2023-08-01T14:36:08;1.60;;;0.98;;
10633;SDS011;5365;51.640;8.106;2023-08-01T14:39:09;4.30;;;1.20;;
10633;SDS011;5365;51.640;8.106;2023-08-01T14:42:09;2.27;;;0.90;;
10633;SDS011;5365;51.640;8.106;2023-08-01T14:45:09;1.67;;;1.00;;
10633;SDS011;5365;51.640;8.106;2023-08-01T14:48:09;2.70;;;0.83;;
10633;SDS011;5365;51.640;8.106;2023-08-01T14:51:10;2.13;;;0.60;;
10633;SDS011;5365;51.640;8.106;2023-08-01T14:54:10;1.60;;;0.83;;
10633;SDS011;5365;51.640;8.106;2023-08-01T14:57:10;1.67;;;0.70;;
10633;SDS011;5365;51.640;8.106;2023-08-01T15:00:10;1.63;;;0.87;;
10633;SDS011;5365;51.640;8.106;2023-08-01T15:03:11;4.70;;;1.13;;
10633;SDS011;5365;51.640;8.106;2023-08-01T15:06:11;2.05;;;0.80;;
10633;SDS011;5365;51.640;8.106;2023-08-01T15:09:12;2.90;;;0.80;;
10633;SDS011;5365;51.640;8.106;2023-08-01T15:12:13;1.87;;;0.73;;
10633;SDS011;5365;51.640;8.106;2023-08-01T15:15:13;2.53;;;0.60;;
10633;SDS011;5365;51.640;8.106;2023-08-01T15:18:13;2.33;;;1.23;;
10633;SDS011;5365;51.640;8.106;2023-08-01T15:21:13;3.30;;;0.80;;
10633;SDS011;5365;51.640;8.106;2023-08-01T15:24:14;4.72;;;2.67;;
10633;SDS011;5365;51.640;8.106;2023-08-01T15:27:14;5.80;;;2.80;;
10633;SDS011;5365;51.640;8.106;2023-08-01T15:30:14;3.03;;;0.90;;
10633;SDS011;5365;51.640;8.106;2023-08-01T15:33:15;2.73;;;0.90;;
10633;SDS011;5365;51.640;8.106;2023-08-01T15:36:16;1.45;;;0.60;;
10633;SDS011;5365;51.640;8.106;2023-08-01T15:39:16;1.23;;;0.30;;
10633;SDS011;5365;51.640;8.106;2023-08-01T16:44:46;0.70;;;0.32;;
10633;SDS011;5365;51.640;8.106;2023-08-01T16:47:46;0.40;;;0.20;;
10633;SDS011;5365;51.640;8.106;2023-08-01T16:50:46;2.27;;;0.50;;
10633;SDS011;5365;51.640;8.106;2023-08-01T16:53:46;1.37;;;0.43;;
10633;SDS011;5365;51.640;8.106;2023-08-01T16:56:47;1.23;;;0.47;;
10633;SDS011;5365;51.640;8.106;2023-08-01T16:59:47;3.33;;;0.80;;
10633;SDS011;5365;51.640;8.106;2023-08-01T17:02:47;1.90;;;0.60;;
10633;SDS011;5365;51.640;8.106;2023-08-01T21:04:02;0.52;;;0.52;;
10633;SDS011;5365;51.640;8.106;2023-08-01T21:07:03;0.47;;;0.30;;
10633;SDS011;5365;51.640;8.106;2023-08-01T21:10:03;0.40;;;0.33;;
10633;SDS011;5365;51.640;8.106;2023-08-01T21:13:04;0.82;;;0.47;;
10633;SDS011;5365;51.640;8.106;2023-08-01T21:16:11;0.82;;;0.43;;
10633;SDS011;5365;51.640;8.106;2023-08-01T21:19:11;1.80;;;0.60;;
10633;SDS011;5365;51.640;8.106;2023-08-01T21:22:11;0.50;;;0.37;;
10633;SDS011;5365;51.640;8.106;2023-08-01T21:25:12;2.60;;;0.47;;
10633;SDS011;5365;51.640;8.106;2023-08-01T21:28:12;1.10;;;0.43;;
10633;SDS011;5365;51.640;8.106;2023-08-01T21:31:12;0.20;;;0.20;;
10633;SDS011;5365;51.640;8.106;2023-08-01T21:34:12;0.57;;;0.27;;
10633;SDS011;5365;51.640;8.106;2023-08-01T21:37:12;0.50;;;0.40;;
10633;SDS011;5365;51.640;8.106;2023-08-01T21:40:13;4.27;;;2.83;;
10633;SDS011;5365;51.640;8.106;2023-08-01T21:43:13;1.43;;;0.30;;
10633;SDS011;5365;51.640;8.106;2023-08-01T21:46:13;16.70;;;7.47;;
10633;SDS011;5365;51.640;8.106;2023-08-01T21:49:13;1.10;;;0.43;;
10633;SDS011;5365;51.640;8.106;2023-08-01T21:52:13;2.87;;;1.33;;
10633;SDS011;5365;51.640;8.106;2023-08-01T21:55:14;2.00;;;0.30;;
10633;SDS011;5365;51.640;8.106;2023-08-01T21:58:14;0.30;;;0.20;;
10633;SDS011;5365;51.640;8.106;2023-08-01T22:01:14;0.77;;;0.50;;
10633;SDS011;5365;51.640;8.106;2023-08-01T22:04:15;1.90;;;0.70;;
10633;SDS011;5365;51.640;8.106;2023-08-01T22:07:15;9.00;;;1.93;;
10633;SDS011;5365;51.640;8.106;2023-08-01T22:10:15;7.43;;;1.77;;
10633;SDS011;5365;51.640;8.106;2023-08-01T22:13:15;3.07;;;0.50;;
10633;SDS011;5365;51.640;8.106;2023-08-01T22:16:16;1.23;;;0.20;;
10633;SDS011;5365;51.640;8.106;2023-08-01T22:19:16;2.00;;;0.50;;
10633;SDS011;5365;51.640;8.106;2023-08-01T22:22:16;7.90;;;0.50;;
10633;SDS011;5365;51.640;8.106;2023-08-01T22:25:23;1.73;;;0.28;;
10633;SDS011;5365;51.640;8.106;2023-08-01T22:28:23;0.37;;;0.20;;
10633;SDS011;5365;51.640;8.106;2023-08-01T22:31:23;2.30;;;0.37;;
10633;SDS011;5365;51.640;8.106;2023-08-01T22:34:25;0.50;;;0.20;;
10633;SDS011;5365;51.640;8.106;2023-08-01T22:37:25;0.40;;;0.10;;
10633;SDS011;5365;51.640;8.106;2023-08-01T22:40:25;2.17;;;0.50;;
10633;SDS011;5365;51.640;8.106;2023-08-01T22:43:25;2.27;;;0.57;;
10633;SDS011;5365;51.640;8.106;2023-08-01T22:46:26;1.75;;;0.65;;
10633;SDS011;5365;51.640;8.106;2023-08-01T22:49:26;1.27;;;0.10;;
10633;SDS011;5365;51.640;8.106;2023-08-01T22:52:26;1.27;;;0.27;;
10633;SDS011;5365;51.640;8.106;2023-08-01T22:55:26;3.33;;;0.70;;
10633;SDS011;5365;51.640;8.106;2023-08-01T22:58:27;2.55;;;0.73;;
10633;SDS011;5365;51.640;8.106;2023-08-01T23:01:27;0.77;;;0.50;;
10633;SDS011;5365;51.640;8.106;2023-08-01T23:04:29;0.73;;;0.30;;
10633;SDS011;5365;51.640;8.106;2023-08-01T23:07:29;2.13;;;0.87;;
10633;SDS011;5365;51.640;8.106;2023-08-01T23:10:29;0.53;;;0.47;;
10633;SDS011;5365;51.640;8.106;2023-08-01T23:13:29;2.55;;;0.10;;
10633;SDS011;5365;51.640;8.106;2023-08-01T23:16:30;3.15;;;0.40;;
10633;SDS011;5365;51.640;8.106;2023-08-01T23:19:30;2.03;;;0.43;;
10633;SDS011;5365;51.640;8.106;2023-08-01T23:22:31;2.00;;;0.40;;
10633;SDS011;5365;51.640;8.106;2023-08-01T23:25:31;0.55;;;0.20;;
10633;SDS011;5365;51.640;8.106;2023-08-01T23:28:31;0.30;;;0.10;;
10633;SDS011;5365;51.640;8.106;2023-08-01T23:31:32;4.85;;;0.50;;
10633;SDS011;5365;51.640;8.106;2023-08-01T23:34:32;4.97;;;0.87;;